createdAt,value
2023-02-11T00:01:33.553Z,98308.09
2023-02-11T00:04:02.558Z,98303.53
2023-02-11T00:06:31.311Z,98312.47
2023-02-11T00:08:58.821Z,98315.78
2023-02-11T00:11:28.202Z,98308.28
2023-02-11T00:13:56.160Z,98310.59
2023-02-11T00:16:23.858Z,98315.78
2023-02-11T00:18:53.260Z,98308.72
2023-02-11T00:21:23.574Z,98307.88
2023-02-11T00:23:51.574Z,98301.69
2023-02-11T00:26:21.233Z,98306.88
2023-02-11T00:28:48.795Z,98304.19
2023-02-11T00:31:17.797Z,98297.66
2023-02-11T00:33:46.095Z,98298.13
2023-02-11T00:36:17.535Z,98302.88
2023-02-11T00:38:48.790Z,98300.00
2023-02-11T00:41:17.306Z,98294.22
2023-02-11T00:43:46.085Z,98290.03
2023-02-11T00:46:13.787Z,98284.66
2023-02-11T00:48:41.845Z,98285.50
2023-02-11T00:51:10.074Z,98291.69
2023-02-11T00:53:39.633Z,98275.91
2023-02-11T00:56:08.596Z,98278.00
2023-02-11T00:58:36.607Z,98285.50
2023-02-11T01:01:04.767Z,98278.00
2023-02-11T01:03:33.138Z,98279.06
2023-02-11T01:06:01.104Z,98277.41
2023-02-11T01:08:28.825Z,98272.00
2023-02-11T01:11:00.236Z,98280.09
2023-02-11T01:13:29.519Z,98281.75
2023-02-11T01:15:57.323Z,98269.31
2023-02-11T01:18:25.434Z,98275.31
2023-02-11T01:20:54.491Z,98270.13
2023-02-11T01:23:24.156Z,98270.13
2023-02-11T01:25:52.413Z,98262.88
2023-02-11T01:28:24.047Z,98256.84
2023-02-11T01:30:53.489Z,98262.88
2023-02-11T01:33:22.162Z,98262.25
2023-02-11T01:35:50.353Z,98257.66
2023-02-11T01:38:20.720Z,98256.84
2023-02-11T01:40:50.068Z,98263.91
2023-02-11T01:43:17.981Z,98253.13
2023-02-11T01:46:01.788Z,98261.81
2023-02-11T01:48:32.937Z,98260.16
2023-02-11T01:51:07.187Z,98260.38
2023-02-11T01:53:38.385Z,98261.22
2023-02-11T01:56:07.638Z,98264.72
2023-02-11T01:58:38.945Z,98260.94
2023-02-11T02:01:11.259Z,98264.94
2023-02-11T02:03:42.322Z,98272.00
2023-02-11T02:06:16.482Z,98264.72
2023-02-11T02:08:51.279Z,98273.03
2023-02-11T02:11:19.158Z,98267.41
2023-02-11T02:13:47.378Z,98274.06
2023-02-11T02:16:18.706Z,98265.75
2023-02-11T02:18:54.564Z,98272.00
2023-02-11T02:21:58.354Z,98273.66
2023-02-11T02:24:47.459Z,98276.56
2023-02-11T02:27:32.529Z,98266.41
2023-02-11T02:30:21.370Z,98268.47
2023-02-11T02:33:22.509Z,98269.31
2023-02-11T02:36:01.113Z,98258.91
2023-02-11T02:38:33.773Z,98258.91
2023-02-11T02:41:07.785Z,98263.28
2023-02-11T02:43:38.025Z,98259.72
2023-02-11T02:46:17.440Z,98257.88
2023-02-11T02:48:47.186Z,98261.59
2023-02-11T02:51:28.071Z,98263.28
2023-02-11T02:54:04.635Z,98257.22
2023-02-11T02:56:41.223Z,98258.84
2023-02-11T02:59:41.046Z,98265.53
2023-02-11T03:02:15.507Z,98251.81
2023-02-11T03:04:52.471Z,98258.91
2023-02-11T03:07:27.902Z,98253.06
2023-02-11T03:09:59.648Z,98245.16
2023-02-11T03:12:29.815Z,98248.66
2023-02-11T03:14:59.655Z,98243.94
2023-02-11T03:17:30.698Z,98240.41
2023-02-11T03:20:01.824Z,98244.75
2023-02-11T03:22:35.553Z,98234.81
2023-02-11T03:25:03.628Z,98233.16
2023-02-11T03:27:39.211Z,98235.22
2023-02-11T03:30:13.614Z,98233.16
2023-02-11T03:32:46.308Z,98232.31
2023-02-11T03:35:20.236Z,98228.56
2023-02-11T03:37:54.186Z,98232.72
2023-02-11T03:40:25.905Z,98235.44
2023-02-11T03:42:58.472Z,98244.41
2023-02-11T03:45:27.850Z,98237.97
2023-02-11T03:47:59.245Z,98244.41
2023-02-11T03:50:32.495Z,98236.31
2023-02-11T03:53:02.140Z,98241.88
2023-02-11T03:55:30.365Z,98252.50
2023-02-11T03:57:57.979Z,98253.50
2023-02-11T04:00:30.706Z,98250.81
2023-02-11T04:02:58.340Z,98259.72
2023-02-11T04:05:26.046Z,98255.19
2023-02-11T04:07:55.051Z,98249.97
2023-02-11T04:10:22.659Z,98258.91
2023-02-11T04:12:50.577Z,98261.41
2023-02-11T04:15:18.416Z,98251.44
2023-02-11T04:17:46.060Z,98242.91
2023-02-11T04:20:13.963Z,98251.44
2023-02-11T04:22:41.615Z,98247.09
2023-02-11T04:25:10.914Z,98248.09
2023-02-11T04:27:38.575Z,98247.91
2023-02-11T04:30:07.699Z,98250.41
2023-02-11T04:32:35.396Z,98250.59
2023-02-11T04:35:02.899Z,98250.59
2023-02-11T04:37:30.496Z,98256.84
2023-02-11T04:39:58.380Z,98262.25
2023-02-11T04:42:27.738Z,98264.72
2023-02-11T04:44:55.285Z,98266.59
2023-02-11T04:47:23.048Z,98264.28
2023-02-11T04:49:50.685Z,98263.06
2023-02-11T04:52:18.416Z,98261.59
2023-02-11T04:54:46.145Z,98270.34
2023-02-11T04:57:13.803Z,98268.25
2023-02-11T04:59:43.009Z,98267.03
2023-02-11T05:02:10.589Z,98262.25
2023-02-11T05:04:38.302Z,98265.56
2023-02-11T05:07:05.890Z,98266.78
2023-02-11T05:09:33.738Z,98267.81
2023-02-11T05:12:01.265Z,98268.84
2023-02-11T05:14:28.949Z,98268.69
2023-02-11T05:16:58.248Z,98275.09
2023-02-11T05:19:25.926Z,98258.50
2023-02-11T05:22:02.596Z,98268.47
2023-02-11T05:24:31.461Z,98263.28
2023-02-11T05:26:59.895Z,98265.75
2023-02-11T05:29:28.058Z,98262.25
2023-02-11T05:31:58.684Z,98269.09
2023-02-11T05:34:26.354Z,98250.59
2023-02-11T05:36:54.683Z,98266.59
2023-02-11T05:39:22.348Z,98271.81
2023-02-11T05:41:50.291Z,98263.91
2023-02-11T05:44:17.905Z,98262.03
2023-02-11T05:46:45.479Z,98256.84
2023-02-11T05:49:14.823Z,98260.16
2023-02-11T05:51:42.493Z,98253.53
2023-02-11T05:54:10.241Z,98257.28
2023-02-11T05:56:37.918Z,98253.53
2023-02-11T05:59:05.615Z,98250.22
2023-02-11T06:01:33.478Z,98251.03
2023-02-11T06:04:01.260Z,98258.09
2023-02-11T06:06:30.541Z,98256.44
2023-02-11T06:08:58.223Z,98252.69
2023-02-11T06:11:25.769Z,98245.44
2023-02-11T06:13:53.480Z,98250.63
2023-02-11T06:16:21.245Z,98253.53
2023-02-11T06:18:48.797Z,98256.84
2023-02-11T06:21:16.526Z,98254.34
2023-02-11T06:23:46.039Z,98256.25
2023-02-11T06:26:18.896Z,98253.13
2023-02-11T06:28:47.857Z,98251.03
2023-02-11T06:31:16.132Z,98256.44
2023-02-11T06:33:45.056Z,98247.09
2023-02-11T06:36:15.372Z,98247.09
2023-02-11T06:38:43.280Z,98250.63
2023-02-11T06:41:13.527Z,98249.81
2023-02-11T06:43:41.704Z,98257.06
2023-02-11T06:46:10.644Z,98243.56
2023-02-11T06:48:38.711Z,98241.72
2023-02-11T06:51:08.193Z,98243.16
2023-02-11T06:53:38.487Z,98241.09
2023-02-11T06:56:09.752Z,98242.28
2023-02-11T06:58:39.900Z,98255.19
2023-02-11T07:01:08.935Z,98251.03
2023-02-11T07:03:38.367Z,98248.97
2023-02-11T07:06:07.803Z,98248.56
2023-02-11T07:08:36.703Z,98251.47
2023-02-11T07:11:10.725Z,98245.22
2023-02-11T07:13:39.988Z,98243.38
2023-02-11T07:16:08.992Z,98242.53
2023-02-11T07:18:37.440Z,98230.28
2023-02-11T07:21:06.544Z,98224.25
2023-02-11T07:23:34.580Z,98228.41
2023-02-11T07:26:03.916Z,98231.09
2023-02-11T07:28:32.285Z,98223.00
2023-02-11T07:31:07.133Z,98216.59
2023-02-11T07:33:36.445Z,98212.22
2023-02-11T07:36:06.478Z,98209.34
2023-02-11T07:38:36.081Z,98207.25
2023-02-11T07:41:05.048Z,98210.38
2023-02-11T07:43:33.494Z,98211.00
2023-02-11T07:46:04.890Z,98204.75
2023-02-11T07:48:34.015Z,98200.19
2023-02-11T07:51:10.089Z,98195.66
2023-02-11T07:53:38.085Z,98197.50
2023-02-11T07:56:07.181Z,98192.09
2023-02-11T07:58:35.183Z,98194.59
2023-02-11T08:01:06.027Z,98184.00
2023-02-11T08:03:34.149Z,98195.66
2023-02-11T08:06:04.606Z,98185.25
2023-02-11T08:08:32.399Z,98191.94
2023-02-11T08:11:05.586Z,98178.34
2023-02-11T08:13:33.370Z,98184.59
2023-02-11T08:16:00.934Z,98175.50
2023-02-11T08:18:30.386Z,98166.50
2023-02-11T08:21:03.786Z,98173.81
2023-02-11T08:23:31.556Z,98166.31
2023-02-11T08:26:02.149Z,98167.13
2023-02-11T08:28:29.751Z,98165.91
2023-02-11T08:30:57.439Z,98169.88
2023-02-11T08:33:25.034Z,98160.94
2023-02-11T08:35:54.122Z,98162.44
2023-02-11T08:38:21.826Z,98157.84
2023-02-11T08:40:49.664Z,98157.84
2023-02-11T08:43:17.431Z,98152.06
2023-02-11T08:45:46.080Z,98151.44
2023-02-11T08:48:14.233Z,98150.41
2023-02-11T08:50:42.118Z,98144.59
2023-02-11T08:53:11.363Z,98145.63
2023-02-11T08:55:38.957Z,98140.41
2023-02-11T08:58:06.546Z,98142.06
2023-02-11T09:00:34.644Z,98136.06
2023-02-11T09:03:02.362Z,98145.41
2023-02-11T09:05:30.030Z,98132.31
2023-02-11T09:07:57.602Z,98137.53
2023-02-11T09:10:26.706Z,98133.97
2023-02-11T09:12:55.478Z,98135.88
2023-02-11T09:15:23.045Z,98129.63
2023-02-11T09:17:51.171Z,98130.47
2023-02-11T09:20:20.161Z,98132.94
2023-02-11T09:22:48.779Z,98137.31
2023-02-11T09:25:17.061Z,98124.66
2023-02-11T09:27:46.236Z,98129.84
2023-02-11T09:30:14.395Z,98124.44
2023-02-11T09:32:42.495Z,98121.53
2023-02-11T09:35:10.093Z,98122.38
2023-02-11T09:37:37.751Z,98116.56
2023-02-11T09:40:07.311Z,98117.59
2023-02-11T09:42:50.580Z,98116.38
2023-02-11T09:45:21.206Z,98107.22
2023-02-11T09:47:54.311Z,98104.53
2023-02-11T09:50:28.180Z,98109.69
2023-02-11T09:53:00.513Z,98101.59
2023-02-11T09:55:31.184Z,98101.41
2023-02-11T09:58:04.323Z,98103.47
2023-02-11T10:00:40.449Z,98096.63
2023-02-11T10:03:43.502Z,98101.41
2023-02-11T10:06:33.216Z,98097.66
2023-02-11T10:09:04.932Z,98094.97
2023-02-11T10:11:45.560Z,98099.31
2023-02-11T10:14:30.601Z,98089.56
2023-02-11T10:17:07.693Z,98092.88
2023-02-11T10:19:51.014Z,98089.56
2023-02-11T10:22:23.404Z,98092.88
2023-02-11T10:24:55.339Z,98096.84
2023-02-11T10:27:28.897Z,98093.28
2023-02-11T10:30:03.197Z,98084.38
2023-02-11T10:32:39.602Z,98096.22
2023-02-11T10:35:15.330Z,98090.19
2023-02-11T10:37:44.611Z,98089.78
2023-02-11T10:40:15.528Z,98081.69
2023-02-11T10:42:47.663Z,98082.94
2023-02-11T10:45:32.925Z,98072.13
2023-02-11T10:48:01.510Z,98076.28
2023-02-11T10:50:31.838Z,98079.00
2023-02-11T10:53:16.691Z,98088.75
2023-02-11T10:55:51.768Z,98081.66
2023-02-11T10:58:26.048Z,98076.69
2023-02-11T11:00:57.186Z,98073.56
2023-02-11T11:03:27.380Z,98070.88
2023-02-11T11:05:58.695Z,98079.59
2023-02-11T11:08:41.344Z,98077.94
2023-02-11T11:11:11.358Z,98075.44
2023-02-11T11:13:41.866Z,98068.59
2023-02-11T11:16:24.091Z,98073.16
2023-02-11T11:18:53.597Z,98070.03
2023-02-11T11:21:24.484Z,98064.63
2023-02-11T11:23:55.979Z,98060.50
2023-02-11T11:26:26.016Z,98063.81
2023-02-11T11:28:58.794Z,98061.31
2023-02-11T11:31:31.854Z,98064.63
2023-02-11T11:34:01.161Z,98064.63
2023-02-11T11:36:35.740Z,98073.78
2023-02-11T11:39:16.925Z,98061.94
2023-02-11T11:41:51.920Z,98076.47
2023-02-11T11:44:25.933Z,98067.56
2023-02-11T11:47:25.592Z,98068.38
2023-02-11T11:50:05.716Z,98084.81
2023-02-11T11:52:44.110Z,98072.13
2023-02-11T11:55:19.724Z,98072.97
2023-02-11T11:57:49.070Z,98083.75
2023-02-11T12:00:19.393Z,98080.03
2023-02-11T12:03:17.584Z,98079.16
2023-02-11T12:05:54.553Z,98083.53
2023-02-11T12:08:31.134Z,98087.88
2023-02-11T12:11:12.653Z,98085.81
2023-02-11T12:14:01.620Z,98094.13
2023-02-11T12:16:40.420Z,98094.31
2023-02-11T12:19:38.950Z,98098.47
2023-02-11T12:22:12.165Z,98097.25
2023-02-11T12:24:56.604Z,98100.75
2023-02-11T12:27:39.645Z,98100.75
2023-02-11T12:30:23.017Z,98092.66
2023-02-11T12:32:57.294Z,98099.72
2023-02-11T12:35:40.378Z,98093.91
2023-02-11T12:38:42.502Z,98091.22
2023-02-11T12:41:33.176Z,98087.50
2023-02-11T12:44:01.151Z,98095.16
2023-02-11T12:46:37.767Z,98094.56
2023-02-11T12:49:32.261Z,98097.06
2023-02-11T12:52:16.641Z,98092.47
2023-02-11T12:54:52.039Z,98098.28
2023-02-11T12:57:23.430Z,98105.13
2023-02-11T12:59:58.677Z,98107.81
2023-02-11T13:02:34.427Z,98114.28
2023-02-11T13:05:06.146Z,98116.78
2023-02-11T13:07:39.995Z,98110.31
2023-02-11T13:10:23.381Z,98121.13
2023-02-11T13:12:53.544Z,98117.38
2023-02-11T13:15:21.197Z,98117.38
2023-02-11T13:17:59.306Z,98126.09
2023-02-11T13:20:36.284Z,98122.78
2023-02-11T13:23:14.017Z,98117.38
2023-02-11T13:25:49.658Z,98117.38
2023-02-11T13:28:40.417Z,98121.94
2023-02-11T13:31:09.692Z,98124.22
2023-02-11T13:33:38.024Z,98130.44
2023-02-11T13:36:24.911Z,98127.13
2023-02-11T13:39:03.792Z,98130.69
2023-02-11T13:41:35.329Z,98129.41
2023-02-11T13:44:14.981Z,98135.84
2023-02-11T13:46:56.856Z,98133.16
2023-02-11T13:49:29.968Z,98132.34
2023-02-11T13:51:59.087Z,98132.34
2023-02-11T13:54:30.689Z,98136.47
2023-02-11T13:57:30.094Z,98132.09
2023-02-11T13:59:59.785Z,98126.94
2023-02-11T14:02:28.756Z,98125.91
2023-02-11T14:05:13.276Z,98127.97
2023-02-11T14:08:20.680Z,98125.28
2023-02-11T14:10:54.873Z,98134.19
2023-02-11T14:13:26.907Z,98139.38
2023-02-11T14:16:09.295Z,98135.66
2023-02-11T14:18:38.489Z,98147.69
2023-02-11T14:21:12.480Z,98139.59
2023-02-11T14:23:40.574Z,98138.53
2023-02-11T14:26:35.113Z,98140.63
2023-02-11T14:29:13.409Z,98144.97
2023-02-11T14:31:45.726Z,98143.31
2023-02-11T14:34:41.217Z,98150.38
2023-02-11T14:37:19.110Z,98151.81
2023-02-11T14:40:08.365Z,98151.22
2023-02-11T14:42:38.591Z,98158.06
2023-02-11T14:45:10.903Z,98158.69
2023-02-11T14:47:43.395Z,98149.78
2023-02-11T14:50:19.777Z,98154.13
2023-02-11T14:52:49.081Z,98153.28
2023-02-11T14:55:27.315Z,98159.72
2023-02-11T14:58:08.487Z,98161.81
2023-02-11T15:00:36.229Z,98160.97
2023-02-11T15:03:04.296Z,98162.41
2023-02-11T15:05:31.831Z,98158.69
2023-02-11T15:08:02.412Z,98153.28
2023-02-11T15:10:33.481Z,98164.31
2023-02-11T15:13:02.380Z,98177.31
2023-02-11T15:15:32.664Z,98172.56
2023-02-11T15:18:03.708Z,98177.56
2023-02-11T15:20:33.749Z,98184.44
2023-02-11T15:23:03.765Z,98185.06
2023-02-11T15:25:34.040Z,98189.81
2023-02-11T15:28:01.833Z,98182.34
2023-02-11T15:30:33.745Z,98199.16
2023-02-11T15:33:02.770Z,98204.56
2023-02-11T15:35:32.813Z,98202.91
2023-02-11T15:38:01.356Z,98197.91
2023-02-11T15:40:31.701Z,98207.88
2023-02-11T15:43:01.541Z,98208.91
2023-02-11T15:45:33.657Z,98209.75
2023-02-11T15:48:08.312Z,98215.97
2023-02-11T15:50:38.307Z,98219.50
2023-02-11T15:53:14.121Z,98226.75
2023-02-11T15:55:42.421Z,98223.66
2023-02-11T15:58:11.593Z,98218.47
2023-02-11T16:00:48.003Z,98224.91
2023-02-11T16:03:21.397Z,98220.75
2023-02-11T16:05:49.542Z,98215.16
2023-02-11T16:08:25.662Z,98217.00
2023-02-11T16:10:59.434Z,98215.97
2023-02-11T16:13:28.503Z,98219.72
2023-02-11T16:16:00.350Z,98219.50
2023-02-11T16:18:38.265Z,98225.09
2023-02-11T16:21:12.542Z,98212.88
2023-02-11T16:23:41.620Z,98220.75
2023-02-11T16:26:21.271Z,98220.13
2023-02-11T16:28:49.375Z,98215.78
2023-02-11T16:31:19.093Z,98215.78
2023-02-11T16:33:46.755Z,98224.69
2023-02-11T16:36:16.574Z,98228.41
2023-02-11T16:38:43.706Z,98233.63
2023-02-11T16:41:11.821Z,98236.75
2023-02-11T16:43:40.650Z,98234.66
2023-02-11T16:46:08.224Z,98246.50
2023-02-11T16:48:38.414Z,98239.63
2023-02-11T16:51:06.519Z,98250.84
2023-02-11T16:53:34.190Z,98245.44
2023-02-11T16:56:01.896Z,98251.66
2023-02-11T16:58:29.605Z,98248.78
2023-02-11T17:00:57.678Z,98260.19
2023-02-11T17:03:29.861Z,98269.31
2023-02-11T17:06:00.003Z,98267.66
2023-02-11T17:08:28.111Z,98271.41
2023-02-11T17:10:56.600Z,98274.28
2023-02-11T17:13:25.158Z,98280.72
2023-02-11T17:15:53.139Z,98282.19
2023-02-11T17:18:21.042Z,98291.31
2023-02-11T17:20:48.830Z,98283.84
2023-02-11T17:23:18.755Z,98283.22
2023-02-11T17:25:46.678Z,98284.28
2023-02-11T17:28:14.203Z,98283.22
2023-02-11T17:30:42.571Z,98274.50
2023-02-11T17:33:10.942Z,98276.16
2023-02-11T17:35:40.611Z,98279.50
2023-02-11T17:38:08.092Z,98278.88
2023-02-11T17:40:37.161Z,98283.41
2023-02-11T17:43:05.242Z,98277.22
2023-02-11T17:45:33.078Z,98280.94
2023-02-11T17:48:00.714Z,98287.78
2023-02-11T17:50:29.595Z,98280.94
2023-02-11T17:52:57.869Z,98284.28
2023-02-11T17:55:25.454Z,98290.47
2023-02-11T17:57:54.698Z,98284.28
2023-02-11T18:00:22.925Z,98286.97
2023-02-11T18:02:50.563Z,98288.00
2023-02-11T18:05:18.401Z,98289.66
2023-02-11T18:07:46.185Z,98282.38
2023-02-11T18:10:13.797Z,98285.94
2023-02-11T18:12:41.373Z,98284.28
2023-02-11T18:15:12.282Z,98289.84
2023-02-11T18:17:39.901Z,98289.44
2023-02-11T18:20:09.218Z,98285.72
2023-02-11T18:22:36.928Z,98286.75
2023-02-11T18:25:05.271Z,98284.28
2023-02-11T18:27:33.437Z,98300.03
2023-02-11T18:30:01.177Z,98294.84
2023-02-11T18:32:30.626Z,98292.97
2023-02-11T18:34:58.494Z,98291.31
2023-02-11T18:37:26.151Z,98290.28
2023-02-11T18:39:54.297Z,98295.88
2023-02-11T18:42:21.918Z,98294.03
2023-02-11T18:44:50.855Z,98287.78
2023-02-11T18:47:18.374Z,98295.69
2023-02-11T18:49:47.466Z,98293.81
2023-02-11T18:52:15.106Z,98300.03
2023-02-11T18:54:42.853Z,98285.72
2023-02-11T18:57:10.415Z,98278.88
2023-02-11T18:59:37.922Z,98284.28
2023-02-11T19:02:05.753Z,98282.59
2023-02-11T19:04:36.312Z,98279.69
2023-02-11T19:07:05.328Z,98284.88
2023-02-11T19:09:32.973Z,98286.53
2023-02-11T19:12:00.879Z,98293.22
2023-02-11T19:14:29.769Z,98290.72
2023-02-11T19:16:58.797Z,98287.81
2023-02-11T19:19:28.631Z,98285.75
2023-02-11T19:21:57.456Z,98287.59
2023-02-11T19:24:27.728Z,98291.34
2023-02-11T19:26:58.286Z,98298.38
2023-02-11T19:29:26.804Z,98291.75
2023-02-11T19:31:55.082Z,98296.53
2023-02-11T19:34:22.773Z,98301.69
2023-02-11T19:36:50.953Z,98300.03
2023-02-11T19:39:18.727Z,98302.75
2023-02-11T19:41:47.710Z,98299.22
2023-02-11T19:44:15.345Z,98298.38
2023-02-11T19:46:43.137Z,98295.06
2023-02-11T19:49:14.554Z,98304.63
2023-02-11T19:51:42.222Z,98315.59
2023-02-11T19:54:09.986Z,98321.19
2023-02-11T19:56:37.611Z,98327.44
2023-02-11T19:59:06.992Z,98323.50
2023-02-11T20:01:34.820Z,98324.53
2023-02-11T20:04:02.635Z,98325.38
2023-02-11T20:06:31.982Z,98332.84
2023-02-11T20:09:01.595Z,98343.63
2023-02-11T20:11:30.356Z,98338.44
2023-02-11T20:13:59.190Z,98338.22
2023-02-11T20:16:46.149Z,98338.22
2023-02-11T20:19:15.961Z,98337.59
2023-02-11T20:21:46.600Z,98334.91
2023-02-11T20:24:14.860Z,98341.97
2023-02-11T20:26:42.455Z,98344.66
2023-02-11T20:29:10.455Z,98346.53
2023-02-11T20:31:39.631Z,98348.41
2023-02-11T20:34:07.278Z,98346.75
2023-02-11T20:36:35.779Z,98341.34
2023-02-11T20:39:05.211Z,98340.31
2023-02-11T20:41:35.130Z,98344.84
2023-02-11T20:44:05.659Z,98346.09
2023-02-11T20:46:34.625Z,98345.06
2023-02-11T20:49:03.743Z,98339.66
2023-02-11T20:51:33.396Z,98344.84
2023-02-11T20:54:01.681Z,98342.34
2023-02-11T20:56:31.947Z,98336.13
2023-02-11T20:59:00.855Z,98338.84
2023-02-11T21:01:31.420Z,98343.38
2023-02-11T21:04:00.865Z,98334.47
2023-02-11T21:06:33.760Z,98339.03
2023-02-11T21:09:01.631Z,98338.22
2023-02-11T21:11:29.357Z,98339.03
2023-02-11T21:13:57.138Z,98337.38
2023-02-11T21:16:25.014Z,98341.72
2023-02-11T21:18:52.534Z,98350.03
2023-02-11T21:21:20.381Z,98351.28
2023-02-11T21:23:49.492Z,98346.69
2023-02-11T21:26:17.729Z,98344.00
2023-02-11T21:28:45.402Z,98346.03
2023-02-11T21:31:19.093Z,98339.84
2023-02-11T21:33:47.596Z,98341.69
2023-02-11T21:36:15.237Z,98336.47
2023-02-11T21:38:42.845Z,98339.41
2023-02-11T21:41:12.200Z,98341.88
2023-02-11T21:43:40.047Z,98330.03
2023-02-11T21:46:10.285Z,98340.03
2023-02-11T21:48:38.249Z,98344.38
2023-02-11T21:51:07.851Z,98346.47
2023-02-11T21:53:35.612Z,98352.66
2023-02-11T21:56:05.302Z,98355.59
2023-02-11T21:58:33.908Z,98351.41
2023-02-11T22:01:01.851Z,98343.94
2023-02-11T22:03:29.438Z,98343.13
2023-02-11T22:05:57.565Z,98355.16
2023-02-11T22:08:25.289Z,98360.53
2023-02-11T22:10:52.853Z,98352.44
2023-02-11T22:13:20.531Z,98357.22
2023-02-11T22:15:59.705Z,98359.06
2023-02-11T22:18:27.644Z,98364.28
2023-02-11T22:21:00.322Z,98377.75
2023-02-11T22:23:28.266Z,98391.44
2023-02-11T22:25:56.385Z,98400.38
2023-02-11T22:28:25.560Z,98400.56
2023-02-11T22:30:54.343Z,98404.09
2023-02-11T22:33:23.701Z,98406.16
2023-02-11T22:35:58.528Z,98403.06
2023-02-11T22:38:26.125Z,98405.13
2023-02-11T22:40:53.731Z,98409.06
2023-02-11T22:43:22.258Z,98408.84
2023-02-11T22:45:49.988Z,98420.28
2023-02-11T22:48:18.214Z,98416.94
2023-02-11T22:50:47.186Z,98423.38
2023-02-11T22:53:14.697Z,98429.63
2023-02-11T22:55:42.273Z,98426.06
2023-02-11T22:58:09.773Z,98427.09
2023-02-11T23:00:39.904Z,98426.06
2023-02-11T23:03:09.097Z,98425.44
2023-02-11T23:05:40.543Z,98426.06
2023-02-11T23:08:11.892Z,98429.03
2023-02-11T23:10:39.890Z,98423.63
2023-02-11T23:13:08.416Z,98427.97
2023-02-11T23:15:39.546Z,98437.75
2023-02-11T23:18:07.549Z,98441.25
2023-02-11T23:20:35.604Z,98438.56
2023-02-11T23:23:04.094Z,98447.50
2023-02-11T23:25:33.987Z,98437.56
2023-02-11T23:28:01.944Z,98451.66
2023-02-11T23:30:29.627Z,98441.91
2023-02-11T23:32:57.291Z,98438.38
2023-02-11T23:35:25.008Z,98437.56
2023-02-11T23:37:53.378Z,98428.19
2023-02-11T23:40:21.825Z,98431.75
2023-02-11T23:42:50.919Z,98429.88
2023-02-11T23:45:19.128Z,98425.50
2023-02-11T23:47:46.832Z,98422.00
2023-02-11T23:50:14.430Z,98414.72
2023-02-11T23:52:42.140Z,98412.00
2023-02-11T23:55:10.342Z,98414.53
2023-02-11T23:57:37.885Z,98415.38
